createdAt,value
2022-08-19T00:00:29.871Z,1010.77
2022-08-19T00:10:36.580Z,1010.99
2022-08-19T00:20:42.853Z,1010.93
2022-08-19T00:30:49.094Z,1010.79
2022-08-19T00:40:55.710Z,1010.73
2022-08-19T00:51:02.536Z,1010.52
2022-08-19T01:01:09.241Z,1010.82
2022-08-19T01:11:18.411Z,1011.00
2022-08-19T01:21:24.667Z,1011.01
2022-08-19T01:31:31.321Z,1010.89
2022-08-19T01:41:39.880Z,1010.46
2022-08-19T01:51:45.900Z,1010.30
2022-08-19T02:01:51.980Z,1010.10
2022-08-19T02:11:58.096Z,1009.84
2022-08-19T02:22:04.616Z,1009.80
2022-08-19T02:32:10.926Z,1009.86
2022-08-19T02:42:17.214Z,1009.90
2022-08-19T02:52:23.412Z,1009.99
2022-08-19T03:02:29.787Z,1009.89
2022-08-19T03:12:36.221Z,1009.93
2022-08-19T03:22:42.557Z,1009.79
2022-08-19T03:32:52.974Z,1009.73
2022-08-19T03:43:01.134Z,1009.80
2022-08-19T03:53:07.794Z,1009.90
2022-08-19T04:03:13.966Z,1009.73
2022-08-19T04:13:20.965Z,1009.90
2022-08-19T04:23:27.615Z,1009.97
2022-08-19T04:33:35.847Z,1009.93
2022-08-19T04:43:42.756Z,1009.92
2022-08-19T04:53:49.003Z,1009.94
2022-08-19T05:03:55.405Z,1009.86
2022-08-19T05:14:02.269Z,1009.87
2022-08-19T05:24:09.499Z,1009.65
2022-08-19T05:34:18.355Z,1009.65
2022-08-19T05:44:27.808Z,1009.76
2022-08-19T05:54:33.920Z,1009.79
2022-08-19T06:04:40.504Z,1009.85
2022-08-19T06:14:47.004Z,1010.00
2022-08-19T06:24:58.316Z,1009.97
2022-08-19T06:35:04.175Z,1009.83
2022-08-19T06:45:12.291Z,1010.00
2022-08-19T06:55:19.830Z,1010.17
2022-08-19T07:05:26.937Z,1010.38
2022-08-19T07:15:33.658Z,1010.25
2022-08-19T07:25:43.042Z,1010.24
2022-08-19T07:35:50.228Z,1010.50
2022-08-19T07:45:57.131Z,1010.59
2022-08-19T07:56:04.073Z,1010.59
2022-08-19T08:06:11.100Z,1010.68
2022-08-19T08:16:17.458Z,1010.90
2022-08-19T08:26:24.003Z,1010.95
2022-08-19T08:36:30.660Z,1010.94
2022-08-19T08:46:37.112Z,1010.99
2022-08-19T08:56:43.600Z,1010.91
2022-08-19T09:06:50.881Z,1011.02
2022-08-19T09:16:57.744Z,1011.01
2022-08-19T09:27:08.355Z,1010.86
2022-08-19T09:37:16.381Z,1010.92
2022-08-19T09:47:23.402Z,1010.94
2022-08-19T09:57:29.935Z,1010.87
2022-08-19T10:07:36.985Z,1010.75
2022-08-19T10:17:48.034Z,1010.67
2022-08-19T10:27:56.048Z,1010.74
2022-08-19T10:38:02.775Z,1010.66
2022-08-19T10:48:12.145Z,1010.60
2022-08-19T10:58:21.953Z,1010.71
2022-08-19T11:08:28.709Z,1010.86
2022-08-19T11:18:35.407Z,1010.90
2022-08-19T11:28:41.940Z,1010.94
2022-08-19T11:38:48.225Z,1010.89
2022-08-19T11:48:54.619Z,1011.00
2022-08-19T11:59:01.341Z,1011.21
2022-08-19T12:09:07.929Z,1011.22
2022-08-19T12:19:13.984Z,1011.27
2022-08-19T12:29:25.198Z,1011.34
2022-08-19T12:39:32.162Z,1011.38
2022-08-19T12:49:54.514Z,1011.35
2022-08-19T12:59:51.288Z,1011.28
2022-08-19T13:09:57.525Z,1011.42
2022-08-19T13:20:05.674Z,1011.51
2022-08-19T13:30:12.462Z,1011.48
2022-08-19T13:40:19.527Z,1011.33
2022-08-19T13:50:26.409Z,1011.39
2022-08-19T14:00:32.948Z,1011.37
2022-08-19T14:10:39.594Z,1011.30
2022-08-19T14:20:46.461Z,1011.34
2022-08-19T14:30:56.652Z,1011.39
2022-08-19T14:41:03.839Z,1011.38
2022-08-19T14:51:10.910Z,1011.36
2022-08-19T15:01:18.579Z,1011.50
2022-08-19T15:11:26.362Z,1011.70
2022-08-19T15:21:33.572Z,1011.78
2022-08-19T15:31:40.602Z,1011.80
2022-08-19T15:41:46.967Z,1011.93
2022-08-19T15:51:54.331Z,1011.83
2022-08-19T16:02:01.473Z,1011.83
2022-08-19T16:12:08.916Z,1011.83
2022-08-19T16:22:16.223Z,1011.85
2022-08-19T16:32:23.804Z,1011.94
2022-08-19T16:42:31.089Z,1011.94
2022-08-19T16:52:38.407Z,1011.92
2022-08-19T17:02:45.488Z,1011.95
2022-08-19T17:12:52.488Z,1011.98
2022-08-19T17:22:59.143Z,1012.00
2022-08-19T17:33:05.782Z,1011.99
2022-08-19T17:43:12.607Z,1012.14
2022-08-19T17:53:19.967Z,1012.15
2022-08-19T18:03:27.410Z,1012.28
2022-08-19T18:13:34.309Z,1012.40
2022-08-19T18:23:45.193Z,1012.39
2022-08-19T18:33:53.231Z,1012.54
2022-08-19T18:44:00.528Z,1012.71
2022-08-19T18:54:07.479Z,1012.85
2022-08-19T19:04:14.493Z,1012.84
2022-08-19T19:14:45.739Z,1013.12
2022-08-19T19:24:33.709Z,1013.22
2022-08-19T19:34:41.951Z,1013.28
2022-08-19T19:44:49.289Z,1013.40
2022-08-19T19:54:56.363Z,1013.43
2022-08-19T20:05:03.223Z,1013.33
2022-08-19T20:15:10.677Z,1013.48
2022-08-19T20:25:17.891Z,1013.49
2022-08-19T20:35:29.422Z,1013.31
2022-08-19T20:45:35.861Z,1013.21
2022-08-19T20:55:42.820Z,1013.25
2022-08-19T21:05:49.909Z,1013.05
2022-08-19T21:15:56.734Z,1013.20
2022-08-19T21:26:04.020Z,1013.26
2022-08-19T21:36:10.322Z,1013.52
2022-08-19T21:46:17.775Z,1013.31
2022-08-19T21:56:24.919Z,1013.28
2022-08-19T22:06:32.147Z,1013.42
2022-08-19T22:16:39.113Z,1013.22
2022-08-19T22:26:45.851Z,1013.15
2022-08-19T22:36:52.884Z,1013.27
2022-08-19T22:47:00.130Z,1013.26
2022-08-19T22:57:06.785Z,1013.13
2022-08-19T23:07:13.784Z,1013.08
2022-08-19T23:17:21.166Z,1013.21
2022-08-19T23:27:28.063Z,1013.28
2022-08-19T23:37:35.200Z,1013.23
2022-08-19T23:47:42.325Z,1013.04
2022-08-19T23:57:49.154Z,1012.94
